sensor_id;sensor_type;location;lat;lon;timestamp;P1;P4;P2;P0;N10;N4;N25;N1;N05;TS
77792;SPS30;66983;51.438;5.438;2023-12-20T00:00:20;2.40;2.32;2.18;1.90;15.19;15.18;15.16;14.97;12.80;0.55
77792;SPS30;66983;51.438;5.438;2023-12-20T00:02:45;2.29;2.22;2.09;1.83;14.58;14.57;14.55;14.37;12.30;0.56
77792;SPS30;66983;51.438;5.438;2023-12-20T00:05:15;2.55;2.47;2.31;2.00;15.96;15.96;15.93;15.72;13.42;0.57
77792;SPS30;66983;51.438;5.438;2023-12-20T00:07:40;2.67;2.56;2.36;2.01;16.02;16.01;15.98;15.72;13.34;0.60
77792;SPS30;66983;51.438;5.438;2023-12-20T00:10:06;1.92;1.85;1.73;1.49;11.90;11.90;11.88;11.71;9.99;0.57
77792;SPS30;66983;51.438;5.438;2023-12-20T00:12:32;2.06;2.00;1.87;1.62;12.90;12.90;12.87;12.70;10.84;0.57
77792;SPS30;66983;51.438;5.438;2023-12-20T00:14:58;2.27;2.19;2.04;1.75;13.97;13.96;13.94;13.74;11.70;0.56
77792;SPS30;66983;51.438;5.438;2023-12-20T00:17:23;2.29;2.20;2.03;1.72;13.75;13.75;13.72;13.50;11.46;0.57
77792;SPS30;66983;51.438;5.438;2023-12-20T00:19:49;2.21;2.13;1.96;1.66;13.21;13.21;13.18;12.96;10.99;0.60
77792;SPS30;66983;51.438;5.438;2023-12-20T00:22:14;2.42;2.31;2.07;1.69;13.52;13.52;13.48;13.19;11.06;0.62
77792;SPS30;66983;51.438;5.438;2023-12-20T00:24:40;2.51;2.37;2.10;1.67;13.31;13.31;13.26;12.92;10.75;0.65
77792;SPS30;66983;51.438;5.438;2023-12-20T00:27:05;2.64;2.48;2.15;1.67;13.31;13.31;13.26;12.86;10.61;0.66
77792;SPS30;66983;51.438;5.438;2023-12-20T00:29:31;2.76;2.59;2.25;1.74;13.90;13.89;13.84;13.42;11.07;0.65
77792;SPS30;66983;51.438;5.438;2023-12-20T00:31:56;2.48;2.32;2.01;1.54;12.26;12.25;12.20;11.81;9.70;0.66
77792;SPS30;66983;51.438;5.438;2023-12-20T00:34:22;2.33;2.18;1.88;1.43;11.43;11.42;11.37;11.01;9.03;0.68
77792;SPS30;66983;51.438;5.438;2023-12-20T00:36:47;2.60;2.41;2.03;1.48;11.85;11.84;11.78;11.32;9.15;0.71
77792;SPS30;66983;51.438;5.438;2023-12-20T00:39:13;2.53;2.34;1.95;1.41;11.27;11.26;11.21;10.74;8.64;0.72
77792;SPS30;66983;51.438;5.438;2023-12-20T00:41:39;2.70;2.49;2.09;1.52;12.12;12.11;12.05;11.56;9.32;0.72
77792;SPS30;66983;51.438;5.438;2023-12-20T00:44:04;2.58;2.39;1.99;1.44;11.49;11.48;11.42;10.94;8.80;0.73
77792;SPS30;66983;51.438;5.438;2023-12-20T00:46:30;2.48;2.29;1.91;1.38;11.01;11.00;10.94;10.49;8.43;0.73
77792;SPS30;66983;51.438;5.438;2023-12-20T00:48:55;2.74;2.52;2.09;1.47;11.77;11.76;11.69;11.16;8.90;0.74
77792;SPS30;66983;51.438;5.438;2023-12-20T00:51:21;3.21;2.95;2.44;1.71;13.67;13.66;13.58;12.95;10.31;0.73
77792;SPS30;66983;51.438;5.438;2023-12-20T00:53:47;2.60;2.40;2.00;1.45;11.54;11.53;11.47;10.99;8.83;0.70
77792;SPS30;66983;51.438;5.438;2023-12-20T00:56:15;2.65;2.45;2.05;1.48;11.83;11.82;11.76;11.27;9.07;0.71
77792;SPS30;66983;51.438;5.438;2023-12-20T00:58:40;2.36;2.17;1.81;1.30;10.38;10.37;10.32;9.88;7.93;0.71
77792;SPS30;66983;51.438;5.438;2023-12-20T01:01:06;2.65;2.43;2.01;1.42;11.36;11.35;11.29;10.78;8.60;0.72
77792;SPS30;66983;51.438;5.438;2023-12-20T01:03:32;2.92;2.68;2.19;1.52;12.12;12.11;12.04;11.45;9.06;0.75
77792;SPS30;66983;51.438;5.438;2023-12-20T01:05:57;2.75;2.51;2.04;1.39;11.13;11.12;11.05;10.48;8.24;0.76
77792;SPS30;66983;51.438;5.438;2023-12-20T01:08:23;3.20;2.91;2.34;1.56;12.48;12.47;12.39;11.70;9.11;0.78
77792;SPS30;66983;51.438;5.438;2023-12-20T01:10:48;2.49;2.28;1.87;1.30;10.34;10.33;10.27;9.77;7.73;0.76
77792;SPS30;66983;51.438;5.438;2023-12-20T01:13:14;2.47;2.26;1.85;1.28;10.25;10.24;10.17;9.68;7.66;0.76
77792;SPS30;66983;51.438;5.438;2023-12-20T01:15:39;2.94;2.68;2.18;1.49;11.91;11.89;11.82;11.22;8.82;0.78
77792;SPS30;66983;51.438;5.438;2023-12-20T01:18:05;3.15;2.87;2.31;1.54;12.32;12.31;12.22;11.55;9.00;0.78
77792;SPS30;66983;51.438;5.438;2023-12-20T01:20:30;3.05;2.78;2.25;1.52;12.15;12.14;12.06;11.42;8.94;0.77
77792;SPS30;66983;51.438;5.438;2023-12-20T01:22:56;2.85;2.61;2.13;1.47;11.76;11.75;11.67;11.10;8.77;0.74
77792;SPS30;66983;51.438;5.438;2023-12-20T01:25:22;2.66;2.44;2.01;1.41;11.27;11.26;11.19;10.68;8.49;0.73
77792;SPS30;66983;51.438;5.438;2023-12-20T01:27:47;2.57;2.36;1.94;1.36;10.85;10.84;10.78;10.28;8.17;0.73
77792;SPS30;66983;51.438;5.438;2023-12-20T01:30:13;2.56;2.34;1.92;1.32;10.53;10.52;10.46;9.94;7.85;0.74
77792;SPS30;66983;51.438;5.438;2023-12-20T01:32:39;3.53;3.21;2.58;1.73;13.81;13.80;13.70;12.95;10.10;0.77
77792;SPS30;66983;51.438;5.438;2023-12-20T01:35:04;3.32;3.01;2.41;1.58;12.63;12.61;12.52;11.79;9.13;0.79
77792;SPS30;66983;51.438;5.438;2023-12-20T01:37:30;2.87;2.64;2.17;1.52;12.12;12.11;12.04;11.47;9.11;0.73
77792;SPS30;66983;51.438;5.438;2023-12-20T01:39:55;3.27;3.01;2.50;1.78;14.23;14.22;14.15;13.53;10.83;0.73
77792;SPS30;66983;51.438;5.438;2023-12-20T01:42:21;2.83;2.60;2.16;1.53;12.21;12.20;12.13;11.59;9.25;0.73
77792;SPS30;66983;51.438;5.438;2023-12-20T01:45:05;2.93;2.70;2.24;1.59;12.69;12.68;12.61;12.05;9.63;0.73
77792;SPS30;66983;51.438;5.438;2023-12-20T01:47:31;3.12;2.87;2.38;1.69;13.52;13.51;13.44;12.85;10.27;0.74
77792;SPS30;66983;51.438;5.438;2023-12-20T01:49:57;3.10;2.85;2.35;1.66;13.24;13.23;13.15;12.55;10.00;0.75
77792;SPS30;66983;51.438;5.438;2023-12-20T01:52:23;3.06;2.81;2.32;1.63;13.02;13.01;12.94;12.34;9.83;0.74
77792;SPS30;66983;51.438;5.438;2023-12-20T01:54:51;2.93;2.68;2.20;1.53;12.24;12.23;12.16;11.58;9.18;0.74
77792;SPS30;66983;51.438;5.438;2023-12-20T01:57:20;2.57;2.37;1.98;1.43;11.39;11.38;11.32;10.85;8.72;0.72
77792;SPS30;66983;51.438;5.438;2023-12-20T01:59:45;2.66;2.44;1.99;1.37;10.95;10.94;10.87;10.33;8.16;0.75
77792;SPS30;66983;51.438;5.438;2023-12-20T02:02:12;2.65;2.42;1.97;1.34;10.70;10.69;10.62;10.07;7.92;0.75
77792;SPS30;66983;51.438;5.438;2023-12-20T02:04:37;2.82;2.58;2.11;1.46;11.67;11.66;11.58;11.02;8.72;0.73
77792;SPS30;66983;51.438;5.438;2023-12-20T02:07:03;3.12;2.87;2.37;1.66;13.27;13.26;13.19;12.58;10.01;0.72
77792;SPS30;66983;51.438;5.438;2023-12-20T02:09:29;2.93;2.69;2.20;1.53;12.24;12.22;12.15;11.57;9.17;0.72
77792;SPS30;66983;51.438;5.438;2023-12-20T02:11:55;2.79;2.57;2.13;1.51;12.09;12.08;12.01;11.48;9.18;0.70
77792;SPS30;66983;51.438;5.438;2023-12-20T02:14:21;2.80;2.58;2.15;1.54;12.30;12.29;12.22;11.70;9.38;0.70
77792;SPS30;66983;51.438;5.438;2023-12-20T02:16:47;2.89;2.67;2.24;1.63;13.00;12.99;12.92;12.40;10.00;0.69
77792;SPS30;66983;51.438;5.438;2023-12-20T02:19:13;2.71;2.51;2.13;1.57;12.52;12.51;12.45;11.98;9.71;0.69
77792;SPS30;66983;51.438;5.438;2023-12-20T02:21:42;3.33;3.08;2.59;1.89;15.07;15.06;14.98;14.39;11.62;0.70
77792;SPS30;66983;51.438;5.438;2023-12-20T02:24:07;3.03;2.81;2.36;1.72;13.75;13.74;13.67;13.13;10.60;0.70
77792;SPS30;66983;51.438;5.438;2023-12-20T02:26:33;3.02;2.79;2.32;1.66;13.25;13.24;13.17;12.60;10.10;0.71
77792;SPS30;66983;51.438;5.438;2023-12-20T02:28:59;2.66;2.47;2.10;1.55;12.38;12.37;12.31;11.85;9.62;0.69
77792;SPS30;66983;51.438;5.438;2023-12-20T02:31:25;3.12;2.89;2.45;1.81;14.47;14.46;14.39;13.85;11.24;0.70
77792;SPS30;66983;51.438;5.438;2023-12-20T02:33:51;3.06;2.84;2.42;1.80;14.37;14.36;14.29;13.77;11.20;0.70
77792;SPS30;66983;51.438;5.438;2023-12-20T02:36:16;3.21;2.97;2.51;1.84;14.67;14.65;14.58;14.01;11.33;0.72
77792;SPS30;66983;51.438;5.438;2023-12-20T02:38:42;3.05;2.81;2.35;1.68;13.45;13.44;13.36;12.80;10.27;0.74
77792;SPS30;66983;51.438;5.438;2023-12-20T02:41:07;3.14;2.88;2.38;1.68;13.37;13.36;13.28;12.67;10.09;0.74
77792;SPS30;66983;51.438;5.438;2023-12-20T02:43:33;2.84;2.61;2.16;1.54;12.25;12.24;12.18;11.64;9.30;0.74
77792;SPS30;66983;51.438;5.438;2023-12-20T02:45:58;2.81;2.61;2.22;1.65;13.15;13.15;13.09;12.61;10.25;0.69
77792;SPS30;66983;51.438;5.438;2023-12-20T02:48:24;3.04;2.84;2.45;1.87;14.97;14.96;14.90;14.42;11.84;0.66
77792;SPS30;66983;51.438;5.438;2023-12-20T02:50:49;3.10;2.89;2.49;1.88;15.03;15.02;14.96;14.46;11.84;0.67
77792;SPS30;66983;51.438;5.438;2023-12-20T02:53:16;2.88;2.68;2.28;1.69;13.50;13.49;13.43;12.93;10.51;0.69
77792;SPS30;66983;51.438;5.438;2023-12-20T02:55:42;3.14;2.92;2.49;1.87;14.89;14.88;14.82;14.29;11.65;0.69
77792;SPS30;66983;51.438;5.438;2023-12-20T02:58:07;2.64;2.47;2.12;1.61;12.83;12.82;12.76;12.34;10.10;0.65
77792;SPS30;66983;51.438;5.438;2023-12-20T03:00:33;2.48;2.32;2.01;1.55;12.34;12.33;12.28;11.90;9.80;0.64
77792;SPS30;66983;51.438;5.438;2023-12-20T03:02:59;2.79;2.62;2.27;1.75;14.01;14.00;13.94;13.52;11.14;0.65
77792;SPS30;66983;51.438;5.438;2023-12-20T03:05:24;3.15;2.93;2.50;1.87;14.93;14.92;14.85;14.32;11.67;0.68
77792;SPS30;66983;51.438;5.438;2023-12-20T03:07:50;2.94;2.75;2.38;1.83;14.59;14.58;14.52;14.07;11.57;0.66
77792;SPS30;66983;51.438;5.438;2023-12-20T03:10:16;3.19;3.00;2.62;2.05;16.33;16.32;16.26;15.79;13.05;0.66
77792;SPS30;66983;51.438;5.438;2023-12-20T03:12:41;2.79;2.63;2.33;1.86;14.82;14.81;14.76;14.39;11.98;0.65
77792;SPS30;66983;51.438;5.438;2023-12-20T03:15:07;2.70;2.56;2.28;1.84;14.68;14.67;14.62;14.28;11.93;0.64
77792;SPS30;66983;51.438;5.438;2023-12-20T03:17:33;2.81;2.69;2.45;2.03;16.23;16.22;16.18;15.87;13.38;0.62
77792;SPS30;66983;51.438;5.438;2023-12-20T03:19:58;2.82;2.69;2.43;1.99;15.92;15.91;15.87;15.54;13.07;0.61
77792;SPS30;66983;51.438;5.438;2023-12-20T03:22:24;2.70;2.59;2.36;1.97;15.75;15.74;15.71;15.42;13.02;0.59
77792;SPS30;66983;51.438;5.438;2023-12-20T03:24:49;3.18;3.06;2.81;2.38;18.97;18.96;18.92;18.61;15.77;0.58
77792;SPS30;66983;51.438;5.438;2023-12-20T03:27:15;3.16;3.04;2.79;2.36;18.88;18.87;18.83;18.52;15.71;0.59
77792;SPS30;66983;51.438;5.438;2023-12-20T03:29:40;3.27;3.15;2.92;2.49;19.84;19.84;19.80;19.49;16.56;0.60
77792;SPS30;66983;51.438;5.438;2023-12-20T03:32:06;3.53;3.38;3.08;2.56;20.44;20.43;20.38;20.00;16.87;0.61
77792;SPS30;66983;51.438;5.438;2023-12-20T03:34:31;3.48;3.34;3.06;2.57;20.56;20.55;20.50;20.14;17.05;0.61
77792;SPS30;66983;51.438;5.438;2023-12-20T03:36:57;3.20;3.08;2.85;2.43;19.44;19.43;19.39;19.09;16.23;0.61
77792;SPS30;66983;51.438;5.438;2023-12-20T03:39:22;2.86;2.77;2.60;2.26;18.07;18.06;18.03;17.80;15.21;0.58
77792;SPS30;66983;51.438;5.438;2023-12-20T03:41:48;3.22;3.15;3.01;2.69;21.47;21.47;21.44;21.25;18.30;0.55
77792;SPS30;66983;51.438;5.438;2023-12-20T03:44:13;3.22;3.14;2.98;2.64;21.08;21.07;21.05;20.83;17.89;0.55
77792;SPS30;66983;51.438;5.438;2023-12-20T03:46:39;3.16;3.09;2.95;2.62;20.95;20.95;20.92;20.72;17.83;0.53
77792;SPS30;66983;51.438;5.438;2023-12-20T03:49:05;3.13;3.05;2.88;2.54;20.28;20.27;20.25;20.02;17.17;0.54
77792;SPS30;66983;51.438;5.438;2023-12-20T03:51:30;3.13;3.06;2.90;2.57;20.50;20.49;20.47;20.26;17.39;0.53
77792;SPS30;66983;51.438;5.438;2023-12-20T03:53:56;3.32;3.23;3.05;2.68;21.40;21.40;21.37;21.13;18.11;0.54
77792;SPS30;66983;51.438;5.438;2023-12-20T03:56:21;3.23;3.15;2.98;2.63;21.01;21.00;20.97;20.75;17.80;0.54
77792;SPS30;66983;51.438;5.438;2023-12-20T03:58:47;3.12;3.04;2.89;2.56;20.48;20.47;20.44;20.24;17.39;0.54
77792;SPS30;66983;51.438;5.438;2023-12-20T04:01:12;3.35;3.26;3.09;2.72;21.74;21.74;21.71;21.47;18.42;0.57
77792;SPS30;66983;51.438;5.438;2023-12-20T04:03:38;3.13;3.04;2.86;2.50;19.97;19.97;19.94;19.70;16.86;0.57
77792;SPS30;66983;51.438;5.438;2023-12-20T04:06:05;3.12;3.03;2.85;2.50;19.97;19.96;19.93;19.70;16.87;0.55
77792;SPS30;66983;51.438;5.438;2023-12-20T04:08:31;3.36;3.27;3.10;2.72;21.74;21.73;21.70;21.46;18.40;0.55
77792;SPS30;66983;51.438;5.438;2023-12-20T04:10:56;3.20;3.10;2.91;2.53;20.23;20.22;20.19;19.93;17.04;0.56
77792;SPS30;66983;51.438;5.438;2023-12-20T04:13:22;3.28;3.16;2.94;2.52;20.12;20.11;20.07;19.78;16.84;0.57
77792;SPS30;66983;51.438;5.438;2023-12-20T04:15:47;3.05;2.93;2.71;2.31;18.45;18.44;18.40;18.12;15.39;0.57
77792;SPS30;66983;51.438;5.438;2023-12-20T04:18:15;3.02;2.93;2.74;2.39;19.06;19.05;19.02;18.78;16.05;0.56
77792;SPS30;66983;51.438;5.438;2023-12-20T04:20:41;3.55;3.43;3.19;2.75;21.92;21.92;21.88;21.57;18.38;0.56
77792;SPS30;66983;51.438;5.438;2023-12-20T04:23:06;3.42;3.30;3.05;2.61;20.82;20.81;20.77;20.46;17.39;0.57
77792;SPS30;66983;51.438;5.438;2023-12-20T04:25:32;3.36;3.26;3.06;2.65;21.19;21.19;21.15;20.88;17.84;0.57
77792;SPS30;66983;51.438;5.438;2023-12-20T04:27:57;3.23;3.14;2.95;2.58;20.56;20.56;20.53;20.28;17.35;0.57
77792;SPS30;66983;51.438;5.438;2023-12-20T04:30:23;3.55;3.44;3.23;2.81;22.40;22.39;22.35;22.07;18.86;0.56
77792;SPS30;66983;51.438;5.438;2023-12-20T04:32:48;3.44;3.36;3.21;2.86;22.83;22.83;22.80;22.59;19.43;0.54
77792;SPS30;66983;51.438;5.438;2023-12-20T04:35:14;3.40;3.32;3.17;2.83;22.58;22.57;22.55;22.34;19.22;0.54
77792;SPS30;66983;51.438;5.438;2023-12-20T04:37:39;3.32;3.24;3.08;2.72;21.73;21.72;21.69;21.47;18.43;0.54
77792;SPS30;66983;51.438;5.438;2023-12-20T04:40:05;3.40;3.32;3.15;2.79;22.30;22.29;22.26;22.04;18.93;0.53
77792;SPS30;66983;51.438;5.438;2023-12-20T04:42:31;3.31;3.21;3.00;2.61;20.81;20.80;20.77;20.50;17.51;0.54
77792;SPS30;66983;51.438;5.438;2023-12-20T04:44:56;3.68;3.56;3.31;2.84;22.67;22.66;22.62;22.29;18.98;0.57
77792;SPS30;66983;51.438;5.438;2023-12-20T04:47:22;3.76;3.63;3.37;2.89;23.07;23.06;23.02;22.68;19.31;0.58
77792;SPS30;66983;51.438;5.438;2023-12-20T04:49:47;3.61;3.48;3.22;2.76;22.01;22.00;21.96;21.62;18.39;0.58
77792;SPS30;66983;51.438;5.438;2023-12-20T04:52:13;3.71;3.56;3.28;2.78;22.21;22.21;22.16;21.80;18.49;0.59
77792;SPS30;66983;51.438;5.438;2023-12-20T04:54:39;3.73;3.60;3.34;2.86;22.80;22.79;22.75;22.41;19.07;0.58
77792;SPS30;66983;51.438;5.438;2023-12-20T04:57:05;3.96;3.82;3.53;3.02;24.07;24.06;24.02;23.65;20.10;0.58
77792;SPS30;66983;51.438;5.438;2023-12-20T04:59:30;3.44;3.34;3.14;2.74;21.90;21.89;21.86;21.59;18.47;0.56
77792;SPS30;66983;51.438;5.438;2023-12-20T05:01:56;3.95;3.85;3.64;3.20;25.57;25.57;25.53;25.25;21.65;0.56
77792;SPS30;66983;51.438;5.438;2023-12-20T05:04:22;3.73;3.65;3.47;3.08;24.61;24.60;24.57;24.33;20.91;0.57
77792;SPS30;66983;51.438;5.438;2023-12-20T05:06:48;3.80;3.70;3.51;3.09;24.71;24.70;24.67;24.40;20.93;0.57
77792;SPS30;66983;51.438;5.438;2023-12-20T05:09:15;4.54;4.42;4.20;3.72;29.71;29.71;29.67;29.36;25.22;0.57
77792;SPS30;66983;51.438;5.438;2023-12-20T05:11:41;4.18;4.09;3.90;3.48;27.77;27.76;27.73;27.47;23.63;0.57
77792;SPS30;66983;51.438;5.438;2023-12-20T05:14:07;3.97;3.88;3.69;3.28;26.20;26.20;26.16;25.91;22.27;0.56
77792;SPS30;66983;51.438;5.438;2023-12-20T05:16:32;4.33;4.23;4.03;3.58;28.58;28.58;28.54;28.26;24.30;0.56
77792;SPS30;66983;51.438;5.438;2023-12-20T05:18:58;4.15;4.02;3.78;3.30;26.33;26.32;26.28;25.96;22.20;0.59
77792;SPS30;66983;51.438;5.438;2023-12-20T05:21:26;4.20;4.08;3.86;3.38;27.01;27.00;26.96;26.65;22.83;0.59
77792;SPS30;66983;51.438;5.438;2023-12-20T05:23:51;4.26;4.15;3.94;3.49;27.84;27.83;27.80;27.51;23.62;0.58
77792;SPS30;66983;51.438;5.438;2023-12-20T05:26:17;4.16;4.06;3.85;3.41;27.20;27.20;27.16;26.88;23.08;0.59
77792;SPS30;66983;51.438;5.438;2023-12-20T05:28:43;3.77;3.68;3.51;3.12;24.90;24.89;24.86;24.62;21.16;0.57
77792;SPS30;66983;51.438;5.438;2023-12-20T05:31:09;4.02;3.94;3.78;3.39;27.09;27.08;27.05;26.83;23.13;0.57
77792;SPS30;66983;51.438;5.438;2023-12-20T05:33:34;4.16;4.07;3.89;3.48;27.80;27.79;27.76;27.51;23.69;0.58
77792;SPS30;66983;51.438;5.438;2023-12-20T05:36:00;4.50;4.38;4.13;3.63;28.95;28.94;28.90;28.57;24.47;0.59
77792;SPS30;66983;51.438;5.438;2023-12-20T05:38:26;4.16;4.04;3.82;3.35;26.78;26.77;26.74;26.43;22.65;0.58
77792;SPS30;66983;51.438;5.438;2023-12-20T05:40:51;4.32;4.21;3.99;3.52;28.10;28.09;28.05;27.75;23.81;0.58
77792;SPS30;66983;51.438;5.438;2023-12-20T05:43:17;3.74;3.64;3.46;3.06;24.43;24.42;24.39;24.14;20.72;0.57
77792;SPS30;66983;51.438;5.438;2023-12-20T05:45:42;4.21;4.11;3.90;3.45;27.53;27.52;27.48;27.19;23.35;0.58
77792;SPS30;66983;51.438;5.438;2023-12-20T05:48:08;4.04;3.93;3.72;3.27;26.14;26.14;26.10;25.81;22.14;0.58
77792;SPS30;66983;51.438;5.438;2023-12-20T05:50:33;3.97;3.86;3.64;3.20;25.54;25.53;25.49;25.20;21.59;0.59
77792;SPS30;66983;51.438;5.438;2023-12-20T05:53:00;4.21;4.07;3.80;3.29;26.28;26.27;26.22;25.87;22.08;0.59
77792;SPS30;66983;51.438;5.438;2023-12-20T05:55:25;4.13;3.98;3.70;3.18;25.35;25.34;25.29;24.92;21.22;0.59
77792;SPS30;66983;51.438;5.438;2023-12-20T05:57:51;4.09;3.94;3.63;3.08;24.61;24.60;24.55;24.15;20.50;0.59
77792;SPS30;66983;51.438;5.438;2023-12-20T06:00:17;4.06;3.93;3.67;3.17;25.32;25.31;25.27;24.93;21.27;0.57
77792;SPS30;66983;51.438;5.438;2023-12-20T06:02:42;4.20;4.07;3.81;3.32;26.48;26.47;26.43;26.09;22.29;0.56
77792;SPS30;66983;51.438;5.438;2023-12-20T06:05:08;4.05;3.91;3.64;3.14;25.08;25.07;25.03;24.68;21.04;0.58
77792;SPS30;66983;51.438;5.438;2023-12-20T06:07:33;3.99;3.86;3.60;3.11;24.81;24.81;24.76;24.42;20.83;0.58
77792;SPS30;66983;51.438;5.438;2023-12-20T06:09:59;4.91;4.77;4.50;3.94;31.41;31.41;31.36;30.99;26.53;0.57
77792;SPS30;66983;51.438;5.438;2023-12-20T06:12:25;4.25;4.14;3.92;3.46;27.63;27.62;27.59;27.29;23.42;0.56
77792;SPS30;66983;51.438;5.438;2023-12-20T06:14:52;4.38;4.24;3.96;3.43;27.39;27.39;27.34;26.97;23.02;0.57
77792;SPS30;66983;51.438;5.438;2023-12-20T06:17:17;3.97;3.85;3.61;3.14;25.05;25.04;25.00;24.68;21.09;0.56
77792;SPS30;66983;51.438;5.438;2023-12-20T06:19:43;3.97;3.84;3.58;3.10;24.72;24.71;24.66;24.33;20.75;0.57
77792;SPS30;66983;51.438;5.438;2023-12-20T06:22:10;4.30;4.15;3.87;3.34;26.69;26.68;26.63;26.27;22.40;0.58
77792;SPS30;66983;51.438;5.438;2023-12-20T06:24:36;3.63;3.53;3.33;2.92;23.29;23.28;23.25;22.98;19.68;0.56
77792;SPS30;66983;51.438;5.438;2023-12-20T06:27:01;3.69;3.57;3.33;2.87;22.94;22.93;22.89;22.58;19.25;0.58
77792;SPS30;66983;51.438;5.438;2023-12-20T06:29:27;3.90;3.76;3.48;2.97;23.75;23.74;23.69;23.33;19.84;0.59
77792;SPS30;66983;51.438;5.438;2023-12-20T06:31:53;4.17;4.03;3.74;3.21;25.60;25.59;25.55;25.17;21.42;0.58
77792;SPS30;66983;51.438;5.438;2023-12-20T06:34:18;4.27;4.12;3.82;3.27;26.09;26.08;26.03;25.64;21.81;0.59
77792;SPS30;66983;51.438;5.438;2023-12-20T06:36:44;3.98;3.83;3.53;3.01;24.00;23.99;23.94;23.56;20.01;0.61
77792;SPS30;66983;51.438;5.438;2023-12-20T06:39:09;3.68;3.51;3.18;2.63;21.03;21.02;20.97;20.55;17.31;0.62
77792;SPS30;66983;51.438;5.438;2023-12-20T06:41:37;3.49;3.33;3.03;2.51;20.04;20.03;19.98;19.59;16.51;0.61
77792;SPS30;66983;51.438;5.438;2023-12-20T06:44:03;3.66;3.49;3.15;2.59;20.68;20.67;20.62;20.19;16.98;0.59
77792;SPS30;66983;51.438;5.438;2023-12-20T06:46:29;3.48;3.32;3.03;2.52;20.11;20.10;20.05;19.68;16.60;0.58
77792;SPS30;66983;51.438;5.438;2023-12-20T06:48:55;3.64;3.46;3.12;2.55;20.34;20.33;20.27;19.83;16.64;0.62
77792;SPS30;66983;51.438;5.438;2023-12-20T06:51:20;4.10;3.88;3.43;2.72;21.74;21.73;21.66;21.10;17.55;0.63
77792;SPS30;66983;51.438;5.438;2023-12-20T06:53:46;3.86;3.63;3.18;2.49;19.88;19.86;19.79;19.23;15.92;0.62
77792;SPS30;66983;51.438;5.438;2023-12-20T06:56:11;3.53;3.34;2.98;2.41;19.22;19.21;19.15;18.70;15.63;0.60
77792;SPS30;66983;51.438;5.438;2023-12-20T06:58:37;3.62;3.46;3.13;2.58;20.63;20.62;20.57;20.15;16.96;0.58
77792;SPS30;66983;51.438;5.438;2023-12-20T07:01:03;3.71;3.51;3.13;2.52;20.15;20.14;20.08;19.60;16.38;0.60
77792;SPS30;66983;51.438;5.438;2023-12-20T07:03:29;4.17;3.90;3.36;2.57;20.49;20.48;20.39;19.73;16.19;0.67
77792;SPS30;66983;51.438;5.438;2023-12-20T07:05:55;4.02;3.77;3.27;2.52;20.15;20.13;20.06;19.44;16.02;0.67
77792;SPS30;66983;51.438;5.438;2023-12-20T07:08:20;3.94;3.71;3.25;2.55;20.35;20.34;20.27;19.70;16.32;0.65
77792;SPS30;66983;51.438;5.438;2023-12-20T07:10:46;4.16;3.90;3.39;2.62;20.88;20.87;20.79;20.16;16.61;0.65
77792;SPS30;66983;51.438;5.438;2023-12-20T07:13:12;4.05;3.79;3.28;2.51;20.03;20.02;19.94;19.30;15.86;0.66
77792;SPS30;66983;51.438;5.438;2023-12-20T07:15:38;3.75;3.50;3.01;2.29;18.24;18.23;18.15;17.55;14.37;0.67
77792;SPS30;66983;51.438;5.438;2023-12-20T07:18:03;3.82;3.58;3.11;2.41;19.21;19.20;19.12;18.55;15.29;0.65
77792;SPS30;66983;51.438;5.438;2023-12-20T07:20:30;4.13;3.88;3.41;2.68;21.38;21.37;21.29;20.71;17.16;0.64
77792;SPS30;66983;51.438;5.438;2023-12-20T07:22:56;4.19;3.92;3.38;2.58;20.60;20.59;20.50;19.84;16.29;0.66
77792;SPS30;66983;51.438;5.438;2023-12-20T07:25:21;4.38;4.10;3.53;2.69;21.47;21.46;21.37;20.68;16.96;0.66
77792;SPS30;66983;51.438;5.438;2023-12-20T07:27:47;4.01;3.77;3.30;2.57;20.54;20.53;20.46;19.87;16.43;0.66
77792;SPS30;66983;51.438;5.438;2023-12-20T07:30:12;4.19;3.93;3.42;2.65;21.15;21.14;21.06;20.43;16.85;0.66
77792;SPS30;66983;51.438;5.438;2023-12-20T07:32:38;3.93;3.70;3.24;2.55;20.33;20.32;20.25;19.68;16.31;0.64
77792;SPS30;66983;51.438;5.438;2023-12-20T07:35:04;3.82;3.59;3.13;2.43;19.41;19.40;19.33;18.76;15.49;0.65
77792;SPS30;66983;51.438;5.438;2023-12-20T07:37:30;3.88;3.62;3.11;2.36;18.82;18.81;18.73;18.11;14.83;0.68
77792;SPS30;66983;51.438;5.438;2023-12-20T07:39:56;4.21;3.95;3.42;2.64;21.08;21.07;20.99;20.34;16.75;0.66
77792;SPS30;66983;51.438;5.438;2023-12-20T07:42:21;3.84;3.62;3.17;2.48;19.82;19.81;19.74;19.19;15.89;0.64
77792;SPS30;66983;51.438;5.438;2023-12-20T07:44:47;3.69;3.46;3.00;2.32;18.51;18.49;18.42;17.86;14.71;0.66
77792;SPS30;66983;51.438;5.438;2023-12-20T07:47:13;4.40;4.09;3.48;2.59;20.66;20.64;20.55;19.80;16.10;0.69
77792;SPS30;66983;51.438;5.438;2023-12-20T07:49:42;4.37;4.06;3.47;2.60;20.76;20.75;20.65;19.93;16.25;0.68
77792;SPS30;66983;51.438;5.438;2023-12-20T07:52:07;3.82;3.57;3.08;2.36;18.81;18.80;18.72;18.12;14.88;0.67
77792;SPS30;66983;51.438;5.438;2023-12-20T07:54:33;4.24;3.99;3.51;2.76;22.02;22.01;21.93;21.33;17.68;0.65
77792;SPS30;66983;51.438;5.438;2023-12-20T07:56:58;3.73;3.52;3.11;2.48;19.78;19.77;19.70;19.20;15.98;0.66
77792;SPS30;66983;51.438;5.438;2023-12-20T07:59:24;4.14;3.88;3.36;2.59;20.69;20.67;20.59;19.96;16.43;0.67
77792;SPS30;66983;51.438;5.438;2023-12-20T08:01:49;4.25;3.99;3.47;2.68;21.41;21.40;21.32;20.68;17.05;0.68
77792;SPS30;66983;51.438;5.438;2023-12-20T08:04:15;4.24;3.96;3.40;2.58;20.60;20.59;20.51;19.82;16.23;0.69
77792;SPS30;66983;51.438;5.438;2023-12-20T08:06:41;4.27;3.97;3.39;2.53;20.21;20.20;20.11;19.39;15.80;0.69
77792;SPS30;66983;51.438;5.438;2023-12-20T08:09:06;5.01;4.64;3.91;2.86;22.83;22.81;22.70;21.81;17.63;0.71
77792;SPS30;66983;51.438;5.438;2023-12-20T08:11:32;4.34;4.01;3.36;2.42;19.34;19.32;19.22;18.42;14.82;0.72
77792;SPS30;66983;51.438;5.438;2023-12-20T08:13:57;4.43;4.12;3.51;2.61;20.87;20.85;20.76;20.01;16.29;0.70
77792;SPS30;66983;51.438;5.438;2023-12-20T08:16:23;4.57;4.27;3.69;2.81;22.47;22.46;22.36;21.64;17.77;0.69
77792;SPS30;66983;51.438;5.438;2023-12-20T08:18:50;4.18;3.92;3.42;2.67;21.29;21.27;21.20;20.58;17.00;0.68
77792;SPS30;66983;51.438;5.438;2023-12-20T08:21:16;3.99;3.77;3.33;2.65;21.11;21.10;21.03;20.49;17.04;0.66
77792;SPS30;66983;51.438;5.438;2023-12-20T08:23:41;4.15;3.89;3.36;2.57;20.49;20.48;20.40;19.74;16.22;0.69
77792;SPS30;66983;51.438;5.438;2023-12-20T08:26:07;4.64;4.32;3.68;2.74;21.89;21.87;21.78;20.99;17.09;0.72
77792;SPS30;66983;51.438;5.438;2023-12-20T08:28:33;4.52;4.20;3.58;2.66;21.27;21.25;21.16;20.39;16.59;0.72
77792;SPS30;66983;51.438;5.438;2023-12-20T08:30:59;4.38;4.09;3.51;2.66;21.20;21.18;21.10;20.38;16.68;0.70
77792;SPS30;66983;51.438;5.438;2023-12-20T08:33:25;4.20;3.91;3.35;2.53;20.16;20.15;20.06;19.37;15.83;0.70
77792;SPS30;66983;51.438;5.438;2023-12-20T08:35:51;4.64;4.31;3.66;2.71;21.67;21.65;21.55;20.76;16.86;0.72
77792;SPS30;66983;51.438;5.438;2023-12-20T08:38:17;4.04;3.76;3.23;2.44;19.50;19.49;19.40;18.75;15.34;0.70
77792;SPS30;66983;51.438;5.438;2023-12-20T08:40:43;4.03;3.80;3.34;2.64;21.09;21.07;21.00;20.44;16.97;0.66
77792;SPS30;66983;51.438;5.438;2023-12-20T08:43:09;4.04;3.81;3.34;2.63;21.01;21.00;20.93;20.35;16.88;0.67
77792;SPS30;66983;51.438;5.438;2023-12-20T08:45:35;4.04;3.80;3.34;2.63;21.01;21.00;20.93;20.35;16.88;0.65
77792;SPS30;66983;51.438;5.438;2023-12-20T08:48:01;3.85;3.62;3.15;2.45;19.58;19.57;19.49;18.92;15.63;0.66
77792;SPS30;66983;51.438;5.438;2023-12-20T08:50:28;3.72;3.51;3.08;2.42;19.34;19.33;19.26;18.74;15.53;0.65
77792;SPS30;66983;51.438;5.438;2023-12-20T08:52:54;4.03;3.80;3.35;2.65;21.16;21.15;21.08;20.52;17.04;0.64
77792;SPS30;66983;51.438;5.438;2023-12-20T08:55:19;3.80;3.60;3.22;2.61;20.85;20.84;20.78;20.30;16.99;0.62
77792;SPS30;66983;51.438;5.438;2023-12-20T08:57:45;3.48;3.30;2.96;2.41;19.24;19.23;19.18;18.75;15.71;0.64
77792;SPS30;66983;51.438;5.438;2023-12-20T09:00:11;4.09;3.88;3.48;2.83;22.63;22.62;22.55;22.05;18.48;0.65
77792;SPS30;66983;51.438;5.438;2023-12-20T09:02:37;4.21;3.97;3.52;2.80;22.36;22.35;22.28;21.71;18.07;0.66
77792;SPS30;66983;51.438;5.438;2023-12-20T09:05:03;3.99;3.77;3.34;2.67;21.28;21.27;21.20;20.66;17.20;0.66
77792;SPS30;66983;51.438;5.438;2023-12-20T09:07:28;3.68;3.49;3.12;2.52;20.14;20.13;20.07;19.60;16.40;0.64